Jhang Weather



Jhang's Current Weather

Temprature 12.26o haze

haze

Rain: 0 %

Min Temprature11o
Max Temprature13.89o
Humidity62
Wind Speed2.1 m/h
Sun Rise07:09:18
Sun Set17:34:00
Current Time: 27-Jan-2020 18:26:53
Lat/Lon: 33.67, 72.7




Jhang's Geo Location



Jhang's Weather Forecast

Time Overall Temp Min Temp Max Temp Humidity Wind Speed Rain
27-Jan-2020 (Mon)
20:00:00 overcast clouds 10.670 10.670 12.650 37 2.1 m/h 0 %
23:00:00 overcast clouds 10.180 10.180 11.670 37 2.48 m/h 0 %
28-Jan-2020 (Tue)
02:00:00 overcast clouds 9.970 9.970 10.960 39 1.41 m/h 0 %
05:00:00 light rain 9.730 9.730 10.230 68 3.28 m/h 38 %
08:00:00 overcast clouds 9.460 9.460 9.460 78 1.51 m/h 0 %
11:00:00 broken clouds 14.640 14.640 14.640 41 1.82 m/h 0 %
14:00:00 overcast clouds 14.400 14.400 14.400 50 4.79 m/h 0 %
17:00:00 overcast clouds 11.380 11.380 11.380 69 6.24 m/h 0 %
20:00:00 overcast clouds 11.250 11.250 11.250 70 2.54 m/h 0 %
23:00:00 light rain 10.090 10.090 10.090 82 2.36 m/h 100 %
29-Jan-2020 (Wed)
02:00:00 light rain 9.740 9.740 9.740 80 3.02 m/h 63 %
05:00:00 light rain 9.010 9.010 9.010 84 2.04 m/h 56 %
08:00:00 overcast clouds 9.800 9.800 9.800 79 1.11 m/h 0 %
11:00:00 light rain 9.570 9.570 9.570 86 1.17 m/h 156 %
14:00:00 light rain 9.500 9.500 9.500 85 2.8 m/h 231 %
17:00:00 light rain 10.600 10.600 10.600 77 3.49 m/h 19 %
20:00:00 clear sky 8.300 8.300 8.300 83 3.29 m/h 0 %
23:00:00 clear sky 7.780 7.780 7.780 84 3.1 m/h 0 %
30-Jan-2020 (Thu)
02:00:00 clear sky 7.110 7.110 7.110 84 2.8 m/h 0 %
05:00:00 clear sky 6.450 6.450 6.450 84 2.68 m/h 0 %
08:00:00 clear sky 7.400 7.400 7.400 77 2.36 m/h 0 %
11:00:00 clear sky 13.420 13.420 13.420 47 3.53 m/h 0 %
14:00:00 scattered clouds 15.790 15.790 15.790 38 3.33 m/h 0 %
17:00:00 broken clouds 13.820 13.820 13.820 45 1.3 m/h 0 %
20:00:00 clear sky 8.870 8.870 8.870 49 0.76 m/h 0 %
23:00:00 scattered clouds 8.770 8.770 8.770 45 1.15 m/h 0 %
31-Jan-2020 (Fri)
02:00:00 broken clouds 8.160 8.160 8.160 48 1.21 m/h 0 %
05:00:00 scattered clouds 6.380 6.380 6.380 55 1.22 m/h 0 %
08:00:00 broken clouds 8.200 8.200 8.200 58 1.12 m/h 0 %
11:00:00 overcast clouds 14.070 14.070 14.070 33 1.24 m/h 0 %
14:00:00 overcast clouds 15.980 15.980 15.980 27 2.37 m/h 0 %
17:00:00 overcast clouds 13.860 13.860 13.860 42 0.61 m/h 0 %
20:00:00 scattered clouds 9.300 9.300 9.300 47 0.37 m/h 0 %
23:00:00 few clouds 7.890 7.890 7.890 47 0.84 m/h 0 %
01-Feb-2020 (Sat)
02:00:00 clear sky 7.100 7.100 7.100 47 1.32 m/h 0 %
05:00:00 clear sky 6.580 6.580 6.580 53 1.79 m/h 0 %
08:00:00 clear sky 7.950 7.950 7.950 61 2.31 m/h 0 %
11:00:00 clear sky 14.460 14.460 14.460 36 3.34 m/h 0 %
14:00:00 clear sky 17.010 17.010 17.010 28 3.59 m/h 0 %
17:00:00 clear sky 15.040 15.040 15.040 35 2.44 m/h 0 %

Famous Cities (61)